sensor_id;sensor_type;location;lat;lon;timestamp;pressure;altitude;pressure_sealevel;temperature;humidity
22743;BME280;11538;48.884;8.696;2023-01-24T00:00:50;100181.75;;;2.66;100.00
22743;BME280;11538;48.884;8.696;2023-01-24T00:03:17;100183.59;;;2.66;100.00
22743;BME280;11538;48.884;8.696;2023-01-24T00:05:46;100189.38;;;2.62;100.00
22743;BME280;11538;48.884;8.696;2023-01-24T00:08:15;100192.25;;;2.61;100.00
22743;BME280;11538;48.884;8.696;2023-01-24T00:14:29;100194.53;;;2.57;100.00
22743;BME280;11538;48.884;8.696;2023-01-24T00:16:56;100189.19;;;2.57;100.00
22743;BME280;11538;48.884;8.696;2023-01-24T00:19:23;100193.31;;;2.53;100.00
22743;BME280;11538;48.884;8.696;2023-01-24T00:21:49;100197.84;;;2.53;100.00
22743;BME280;11538;48.884;8.696;2023-01-24T00:24:17;100197.66;;;2.54;100.00
22743;BME280;11538;48.884;8.696;2023-01-24T00:26:44;100198.88;;;2.52;100.00
22743;BME280;11538;48.884;8.696;2023-01-24T00:29:10;100194.34;;;2.52;100.00
22743;BME280;11538;48.884;8.696;2023-01-24T00:31:37;100194.34;;;2.52;100.00
22743;BME280;11538;48.884;8.696;2023-01-24T00:34:04;100191.66;;;2.52;100.00
22743;BME280;11538;48.884;8.696;2023-01-24T00:36:31;100192.47;;;2.53;100.00
22743;BME280;11538;48.884;8.696;2023-01-24T00:38:58;100189.19;;;2.51;100.00
22743;BME280;11538;48.884;8.696;2023-01-24T00:41:24;100185.47;;;2.52;100.00
22743;BME280;11538;48.884;8.696;2023-01-24T00:43:51;100189.19;;;2.51;100.00
22743;BME280;11538;48.884;8.696;2023-01-24T00:46:18;100183.03;;;2.50;100.00
22743;BME280;11538;48.884;8.696;2023-01-24T00:48:45;100187.34;;;2.51;100.00
22743;BME280;11538;48.884;8.696;2023-01-24T00:51:12;100185.28;;;2.53;100.00
22743;BME280;11538;48.884;8.696;2023-01-24T00:53:39;100180.72;;;2.54;100.00
22743;BME280;11538;48.884;8.696;2023-01-24T00:56:06;100176.63;;;2.51;100.00
22743;BME280;11538;48.884;8.696;2023-01-24T00:58:33;100183.66;;;2.45;100.00
22743;BME280;11538;48.884;8.696;2023-01-24T01:01:00;100180.78;;;2.47;100.00
22743;BME280;11538;48.884;8.696;2023-01-24T01:03:30;100183.66;;;2.45;100.00
22743;BME280;11538;48.884;8.696;2023-01-24T01:06:06;100188.38;;;2.43;100.00
22743;BME280;11538;48.884;8.696;2023-01-24T01:08:33;100193.56;;;2.45;100.00
22743;BME280;11538;48.884;8.696;2023-01-24T01:11:00;100197.44;;;2.49;100.00
22743;BME280;11538;48.884;8.696;2023-01-24T01:13:27;100209.41;;;2.46;100.00
22743;BME280;11538;48.884;8.696;2023-01-24T01:16:06;100210.84;;;2.42;100.00
22743;BME280;11538;48.884;8.696;2023-01-24T01:18:34;100208.41;;;2.41;100.00
22743;BME280;11538;48.884;8.696;2023-01-24T01:21:02;100210.84;;;2.42;100.00
22743;BME280;11538;48.884;8.696;2023-01-24T01:23:29;100220.53;;;2.43;100.00
22743;BME280;11538;48.884;8.696;2023-01-24T01:26:00;100218.28;;;2.47;100.00
22743;BME280;11538;48.884;8.696;2023-01-24T01:28:28;100222.38;;;2.49;100.00
22743;BME280;11538;48.884;8.696;2023-01-24T01:30:55;100214.94;;;2.52;100.00
22743;BME280;11538;48.884;8.696;2023-01-24T01:33:22;100217.63;;;2.52;100.00
22743;BME280;11538;48.884;8.696;2023-01-24T01:35:50;100218.66;;;2.51;100.00
22743;BME280;11538;48.884;8.696;2023-01-24T01:38:17;100215.78;;;2.52;100.00
22743;BME280;11538;48.884;8.696;2023-01-24T01:40:45;100208.78;;;2.51;100.00
22743;BME280;11538;48.884;8.696;2023-01-24T01:43:19;100218.66;;;2.51;100.00
22743;BME280;11538;48.884;8.696;2023-01-24T01:45:48;100216.41;;;2.47;100.00
22743;BME280;11538;48.884;8.696;2023-01-24T01:48:38;100218.03;;;2.48;100.00
22743;BME280;11538;48.884;8.696;2023-01-24T01:51:08;100222.38;;;2.49;100.00
22743;BME280;11538;48.884;8.696;2023-01-24T01:53:42;100214.75;;;2.46;100.00
22743;BME280;11538;48.884;8.696;2023-01-24T01:56:25;100209.63;;;2.45;100.00
22743;BME280;11538;48.884;8.696;2023-01-24T01:58:58;100211.28;;;2.46;100.00
22743;BME280;11538;48.884;8.696;2023-01-24T02:01:28;100203.44;;;2.44;100.00
22743;BME280;11538;48.884;8.696;2023-01-24T02:04:03;100210.66;;;2.44;100.00
22743;BME280;11538;48.884;8.696;2023-01-24T02:06:51;100201.41;;;2.40;100.00
22743;BME280;11538;48.884;8.696;2023-01-24T02:09:26;100211.69;;;2.36;100.00
22743;BME280;11538;48.884;8.696;2023-01-24T02:11:58;100214.59;;;2.34;100.00
22743;BME280;11538;48.884;8.696;2023-01-24T02:14:26;100218.91;;;2.36;100.00
22743;BME280;11538;48.884;8.696;2023-01-24T02:17:16;100220.34;;;2.38;100.00
22743;BME280;11538;48.884;8.696;2023-01-24T02:26:09;100233.31;;;2.41;100.00
22743;BME280;11538;48.884;8.696;2023-01-24T02:28:37;100236.81;;;2.42;100.00
22743;BME280;11538;48.884;8.696;2023-01-24T02:31:07;100237.44;;;2.44;100.00
22743;BME280;11538;48.884;8.696;2023-01-24T02:33:34;100244.63;;;2.43;100.00
22743;BME280;11538;48.884;8.696;2023-01-24T02:36:24;100243.63;;;2.38;100.00
22743;BME280;11538;48.884;8.696;2023-01-24T02:38:58;100249.59;;;2.40;100.00
22743;BME280;11538;48.884;8.696;2023-01-24T02:41:30;100254.13;;;2.39;100.00
22743;BME280;11538;48.884;8.696;2023-01-24T02:44:05;100248.56;;;2.41;100.00
22743;BME280;11538;48.884;8.696;2023-01-24T02:46:37;100246.69;;;2.41;100.00
22743;BME280;11538;48.884;8.696;2023-01-24T02:49:08;100237.66;;;2.36;100.00
22743;BME280;11538;48.884;8.696;2023-01-24T02:51:35;100256.00;;;2.39;100.00
22743;BME280;11538;48.884;8.696;2023-01-24T02:54:20;100254.97;;;2.40;100.00
22743;BME280;11538;48.884;8.696;2023-01-24T02:56:47;100253.50;;;2.37;100.00
22743;BME280;11538;48.884;8.696;2023-01-24T02:59:32;100265.06;;;2.38;100.00
22743;BME280;11538;48.884;8.696;2023-01-24T03:01:59;100258.66;;;2.39;100.00
22743;BME280;11538;48.884;8.696;2023-01-24T03:04:26;100260.94;;;2.42;100.00
22743;BME280;11538;48.884;8.696;2023-01-24T03:06:53;100255.56;;;2.42;100.00
22743;BME280;11538;48.884;8.696;2023-01-24T03:09:20;100246.94;;;2.40;100.00
22743;BME280;11538;48.884;8.696;2023-01-24T03:12:01;100248.38;;;2.36;100.00
22743;BME280;11538;48.884;8.696;2023-01-24T03:14:47;100250.03;;;2.37;100.00
22743;BME280;11538;48.884;8.696;2023-01-24T03:17:33;100256.59;;;2.41;100.00
22743;BME280;11538;48.884;8.696;2023-01-24T03:20:18;100250.84;;;2.37;100.00
22743;BME280;11538;48.884;8.696;2023-01-24T03:23:04;100252.47;;;2.38;100.00
22743;BME280;11538;48.884;8.696;2023-01-24T03:25:53;100250.03;;;2.37;100.00
22743;BME280;11538;48.884;8.696;2023-01-24T03:28:39;100253.50;;;2.37;100.00
22743;BME280;11538;48.884;8.696;2023-01-24T03:31:25;100244.44;;;2.38;100.00
22743;BME280;11538;48.884;8.696;2023-01-24T03:34:11;100254.34;;;2.38;100.00
22743;BME280;11538;48.884;8.696;2023-01-24T03:36:58;100250.63;;;2.39;100.00
22743;BME280;11538;48.884;8.696;2023-01-24T03:39:25;100256.19;;;2.37;100.00
22743;BME280;11538;48.884;8.696;2023-01-24T03:42:10;100256.81;;;2.39;100.00
22743;BME280;11538;48.884;8.696;2023-01-24T03:44:37;100259.91;;;2.43;100.00
22743;BME280;11538;48.884;8.696;2023-01-24T03:47:04;100257.59;;;2.46;100.00
22743;BME280;11538;48.884;8.696;2023-01-24T03:49:31;100248.34;;;2.49;100.00
22743;BME280;11538;48.884;8.696;2023-01-24T03:52:17;100260.28;;;2.46;100.00
22743;BME280;11538;48.884;8.696;2023-01-24T03:54:57;100257.00;;;2.44;100.00
22743;BME280;11538;48.884;8.696;2023-01-24T03:57:26;100262.97;;;2.46;100.00
22743;BME280;11538;48.884;8.696;2023-01-24T03:59:53;100256.19;;;2.44;100.00
22743;BME280;11538;48.884;8.696;2023-01-24T04:02:20;100255.97;;;2.45;100.00
22743;BME280;11538;48.884;8.696;2023-01-24T04:04:47;100258.66;;;2.45;100.00
22743;BME280;11538;48.884;8.696;2023-01-24T04:07:33;100262.16;;;2.39;100.00
22743;BME280;11538;48.884;8.696;2023-01-24T04:10:00;100262.81;;;2.34;100.00
22743;BME280;11538;48.884;8.696;2023-01-24T04:12:27;100260.13;;;2.34;100.00
22743;BME280;11538;48.884;8.696;2023-01-24T04:14:53;100252.69;;;2.37;100.00
22743;BME280;11538;48.884;8.696;2023-01-24T04:17:20;100255.16;;;2.38;100.00
22743;BME280;11538;48.884;8.696;2023-01-24T04:19:47;100253.50;;;2.37;100.00
22743;BME280;11538;48.884;8.696;2023-01-24T04:22:15;100247.97;;;2.39;100.00
22743;BME280;11538;48.884;8.696;2023-01-24T04:24:43;100245.47;;;2.37;100.00
22743;BME280;11538;48.884;8.696;2023-01-24T04:27:11;100253.09;;;2.40;100.00
22743;BME280;11538;48.884;8.696;2023-01-24T04:29:37;100259.47;;;2.39;100.00
22743;BME280;11538;48.884;8.696;2023-01-24T04:32:05;100250.22;;;2.35;100.00
22743;BME280;11538;48.884;8.696;2023-01-24T04:34:32;100250.03;;;2.37;100.00
22743;BME280;11538;48.884;8.696;2023-01-24T04:36:58;100251.06;;;2.36;100.00
22743;BME280;11538;48.884;8.696;2023-01-24T04:39:25;100253.50;;;2.37;100.00
22743;BME280;11538;48.884;8.696;2023-01-24T04:41:52;100253.31;;;2.39;100.00
22743;BME280;11538;48.884;8.696;2023-01-24T04:44:19;100250.84;;;2.37;100.00
22743;BME280;11538;48.884;8.696;2023-01-24T04:46:46;100251.06;;;2.36;100.00
22743;BME280;11538;48.884;8.696;2023-01-24T04:49:12;100251.25;;;2.34;100.00
22743;BME280;11538;48.884;8.696;2023-01-24T04:51:39;100260.31;;;2.33;100.00
22743;BME280;11538;48.884;8.696;2023-01-24T04:54:10;100256.59;;;2.34;100.00
22743;BME280;11538;48.884;8.696;2023-01-24T04:56:37;100263.59;;;2.35;100.00
22743;BME280;11538;48.884;8.696;2023-01-24T04:59:04;100259.91;;;2.36;100.00
22743;BME280;11538;48.884;8.696;2023-01-24T05:01:31;100265.88;;;2.38;100.00
22743;BME280;11538;48.884;8.696;2023-01-24T05:03:58;100259.69;;;2.38;100.00
22743;BME280;11538;48.884;8.696;2023-01-24T05:06:27;100257.03;;;2.38;100.00
22743;BME280;11538;48.884;8.696;2023-01-24T05:08:54;100267.09;;;2.42;100.00
22743;BME280;11538;48.884;8.696;2023-01-24T05:11:22;100267.31;;;2.41;100.00
22743;BME280;11538;48.884;8.696;2023-01-24T05:13:50;100275.97;;;2.36;100.00
22743;BME280;11538;48.884;8.696;2023-01-24T05:16:17;100266.91;;;2.37;100.00
22743;BME280;11538;48.884;8.696;2023-01-24T05:18:43;100277.41;;;2.39;100.00
22743;BME280;11538;48.884;8.696;2023-01-24T05:21:13;100273.09;;;2.38;100.00
22743;BME280;11538;48.884;8.696;2023-01-24T05:23:41;100270.00;;;2.41;100.00
22743;BME280;11538;48.884;8.696;2023-01-24T05:26:08;100277.63;;;2.44;100.00
22743;BME280;11538;48.884;8.696;2023-01-24T05:28:35;100278.44;;;2.44;100.00
22743;BME280;11538;48.884;8.696;2023-01-24T05:31:05;100278.44;;;2.44;100.00
22743;BME280;11538;48.884;8.696;2023-01-24T05:33:36;100282.78;;;2.39;100.00
22743;BME280;11538;48.884;8.696;2023-01-24T05:36:06;100282.56;;;2.40;100.00
22743;BME280;11538;48.884;8.696;2023-01-24T05:38:34;100282.13;;;2.43;100.00
22743;BME280;11538;48.884;8.696;2023-01-24T05:41:06;100280.91;;;2.39;100.00
22743;BME280;11538;48.884;8.696;2023-01-24T05:43:34;100284.44;;;2.40;100.00
22743;BME280;11538;48.884;8.696;2023-01-24T05:46:06;100280.09;;;2.39;100.00
22743;BME280;11538;48.884;8.696;2023-01-24T05:48:34;100282.78;;;2.39;100.00
22743;BME280;11538;48.884;8.696;2023-01-24T05:51:03;100282.56;;;2.40;100.00
22743;BME280;11538;48.884;8.696;2023-01-24T05:53:32;100287.91;;;2.40;100.00
22743;BME280;11538;48.884;8.696;2023-01-24T05:56:01;100285.22;;;2.40;100.00
22743;BME280;11538;48.884;8.696;2023-01-24T05:58:32;100286.91;;;2.34;100.00
22743;BME280;11538;48.884;8.696;2023-01-24T06:00:59;100294.31;;;2.32;100.00
22743;BME280;11538;48.884;8.696;2023-01-24T06:03:26;100303.16;;;2.33;100.00
22743;BME280;11538;48.884;8.696;2023-01-24T06:05:54;100304.63;;;2.36;100.00
22743;BME280;11538;48.884;8.696;2023-01-24T06:08:21;100311.63;;;2.37;100.00
22743;BME280;11538;48.884;8.696;2023-01-24T06:10:48;100313.25;;;2.38;100.00
22743;BME280;11538;48.884;8.696;2023-01-24T06:13:16;100311.81;;;2.35;100.00
22743;BME280;11538;48.884;8.696;2023-01-24T06:15:43;100314.28;;;2.37;100.00
22743;BME280;11538;48.884;8.696;2023-01-24T06:18:14;100325.41;;;2.40;100.00
22743;BME280;11538;48.884;8.696;2023-01-24T06:20:41;100323.13;;;2.37;100.00
22743;BME280;11538;48.884;8.696;2023-01-24T06:23:12;100327.88;;;2.35;100.00
22743;BME280;11538;48.884;8.696;2023-01-24T06:25:43;100333.25;;;2.35;100.00
22743;BME280;11538;48.884;8.696;2023-01-24T06:28:10;100330.38;;;2.37;100.00
22743;BME280;11538;48.884;8.696;2023-01-24T06:30:39;100331.19;;;2.37;100.00
22743;BME280;11538;48.884;8.696;2023-01-24T06:33:35;100333.44;;;2.40;100.00
22743;BME280;11538;48.884;8.696;2023-01-24T06:36:26;100338.59;;;2.42;100.00
22743;BME280;11538;48.884;8.696;2023-01-24T06:38:56;100336.53;;;2.37;100.00
22743;BME280;11538;48.884;8.696;2023-01-24T06:41:24;100337.56;;;2.36;100.00
22743;BME280;11538;48.884;8.696;2023-01-24T06:43:51;100333.44;;;2.40;100.00
22743;BME280;11538;48.884;8.696;2023-01-24T06:46:18;100339.03;;;2.39;100.00
22743;BME280;11538;48.884;8.696;2023-01-24T06:48:45;100343.13;;;2.41;100.00
22743;BME280;11538;48.884;8.696;2023-01-24T06:51:13;100338.38;;;2.43;100.00
22743;BME280;11538;48.884;8.696;2023-01-24T06:53:42;100339.41;;;2.42;100.00
22743;BME280;11538;48.884;8.696;2023-01-24T06:56:09;100345.41;;;2.38;100.00
22743;BME280;11538;48.884;8.696;2023-01-24T06:58:36;100350.53;;;2.39;100.00
22743;BME280;11538;48.884;8.696;2023-01-24T07:01:03;100353.84;;;2.41;100.00
22743;BME280;11538;48.884;8.696;2023-01-24T07:03:30;100357.75;;;2.39;100.00
22743;BME280;11538;48.884;8.696;2023-01-24T07:05:57;100356.94;;;2.38;100.00
22743;BME280;11538;48.884;8.696;2023-01-24T07:08:23;100360.44;;;2.39;100.00
22743;BME280;11538;48.884;8.696;2023-01-24T07:10:50;100371.97;;;2.39;100.00
22743;BME280;11538;48.884;8.696;2023-01-24T07:13:17;100362.72;;;2.42;100.00
22743;BME280;11538;48.884;8.696;2023-01-24T07:15:44;100371.56;;;2.42;100.00
22743;BME280;11538;48.884;8.696;2023-01-24T07:18:12;100367.44;;;2.46;100.00
22743;BME280;11538;48.884;8.696;2023-01-24T07:20:40;100367.25;;;2.48;100.00
22743;BME280;11538;48.884;8.696;2023-01-24T07:23:18;100369.50;;;2.44;100.00
22743;BME280;11538;48.884;8.696;2023-01-24T07:25:47;100375.47;;;2.40;100.00
22743;BME280;11538;48.884;8.696;2023-01-24T07:28:14;100370.31;;;2.38;100.00
22743;BME280;11538;48.884;8.696;2023-01-24T07:30:41;100376.50;;;2.39;100.00
22743;BME280;11538;48.884;8.696;2023-01-24T07:33:09;100372.19;;;2.38;100.00
22743;BME280;11538;48.884;8.696;2023-01-24T07:35:35;100373.00;;;2.38;100.00
22743;BME280;11538;48.884;8.696;2023-01-24T07:38:02;100384.31;;;2.40;100.00
22743;BME280;11538;48.884;8.696;2023-01-24T07:40:29;100378.16;;;2.40;100.00
22743;BME280;11538;48.884;8.696;2023-01-24T07:42:59;100384.13;;;2.42;100.00
22743;BME280;11538;48.884;8.696;2023-01-24T07:45:28;100388.47;;;2.43;100.00
22743;BME280;11538;48.884;8.696;2023-01-24T07:47:55;100393.81;;;2.49;100.00
22743;BME280;11538;48.884;8.696;2023-01-24T07:50:24;100399.16;;;2.49;100.00
22743;BME280;11538;48.884;8.696;2023-01-24T07:52:54;100398.13;;;2.51;100.00
22743;BME280;11538;48.884;8.696;2023-01-24T07:55:22;100389.06;;;2.52;100.00
22743;BME280;11538;48.884;8.696;2023-01-24T07:57:49;100385.56;;;2.51;100.00
22743;BME280;11538;48.884;8.696;2023-01-24T08:00:19;100390.09;;;2.51;100.00
22743;BME280;11538;48.884;8.696;2023-01-24T08:02:47;100394.84;;;2.48;100.00
22743;BME280;11538;48.884;8.696;2023-01-24T08:05:15;100391.53;;;2.46;100.00
22743;BME280;11538;48.884;8.696;2023-01-24T08:07:42;100392.97;;;2.42;100.00
22743;BME280;11538;48.884;8.696;2023-01-24T08:10:09;100391.75;;;2.45;100.00
22743;BME280;11538;48.884;8.696;2023-01-24T08:12:37;100401.22;;;2.47;100.00
22743;BME280;11538;48.884;8.696;2023-01-24T08:15:04;100401.03;;;2.49;100.00
22743;BME280;11538;48.884;8.696;2023-01-24T08:17:31;100407.81;;;2.52;100.00
22743;BME280;11538;48.884;8.696;2023-01-24T08:19:58;100409.88;;;2.49;100.00
22743;BME280;11538;48.884;8.696;2023-01-24T08:22:25;100410.50;;;2.52;100.00
22743;BME280;11538;48.884;8.696;2023-01-24T08:24:52;100415.66;;;2.53;100.00
22743;BME280;11538;48.884;8.696;2023-01-24T08:27:34;100420.78;;;2.55;100.00
22743;BME280;11538;48.884;8.696;2023-01-24T08:30:02;100416.47;;;2.54;100.00
22743;BME280;11538;48.884;8.696;2023-01-24T08:32:29;100421.00;;;2.53;100.00
22743;BME280;11538;48.884;8.696;2023-01-24T08:34:58;100430.69;;;2.54;100.00
22743;BME280;11538;48.884;8.696;2023-01-24T08:37:25;100432.34;;;2.62;100.00
22743;BME280;11538;48.884;8.696;2023-01-24T08:39:51;100422.22;;;2.64;100.00
22743;BME280;11538;48.884;8.696;2023-01-24T08:42:18;100423.06;;;2.65;100.00
22743;BME280;11538;48.884;8.696;2023-01-24T08:44:45;100431.31;;;2.63;100.00
22743;BME280;11538;48.884;8.696;2023-01-24T08:47:15;100428.63;;;2.63;100.00
22743;BME280;11538;48.884;8.696;2023-01-24T08:49:41;100432.34;;;2.62;100.00
22743;BME280;11538;48.884;8.696;2023-01-24T08:52:08;100442.03;;;2.63;100.00
22743;BME280;11538;48.884;8.696;2023-01-24T08:54:35;100441.00;;;2.64;100.00
22743;BME280;11538;48.884;8.696;2023-01-24T08:57:03;100443.28;;;2.67;100.00
22743;BME280;11538;48.884;8.696;2023-01-24T08:59:30;100441.22;;;2.69;100.00
22743;BME280;11538;48.884;8.696;2023-01-24T09:01:57;100440.00;;;2.65;100.00
22743;BME280;11538;48.884;8.696;2023-01-24T09:04:24;100451.31;;;2.67;100.00
22743;BME280;11538;48.884;8.696;2023-01-24T09:06:53;100454.63;;;2.69;100.00
22743;BME280;11538;48.884;8.696;2023-01-24T09:09:20;100451.72;;;2.71;100.00
22743;BME280;11538;48.884;8.696;2023-01-24T09:11:47;100451.31;;;2.74;100.00
22743;BME280;11538;48.884;8.696;2023-01-24T09:14:14;100451.53;;;2.72;100.00
22743;BME280;11538;48.884;8.696;2023-01-24T09:16:41;100451.94;;;2.76;100.00
22743;BME280;11538;48.884;8.696;2023-01-24T09:19:11;100458.75;;;2.78;100.00
22743;BME280;11538;48.884;8.696;2023-01-24T09:21:38;100455.03;;;2.80;100.00
22743;BME280;11538;48.884;8.696;2023-01-24T09:24:05;100459.97;;;2.76;100.00
22743;BME280;11538;48.884;8.696;2023-01-24T09:26:33;100455.22;;;2.78;100.00
22743;BME280;11538;48.884;8.696;2023-01-24T09:28:59;100457.72;;;2.80;100.00
22743;BME280;11538;48.884;8.696;2023-01-24T09:31:26;100468.44;;;2.80;100.00
22743;BME280;11538;48.884;8.696;2023-01-24T09:33:53;100465.34;;;2.83;100.00
22743;BME280;11538;48.884;8.696;2023-01-24T09:36:26;100465.13;;;2.84;100.00
22743;BME280;11538;48.884;8.696;2023-01-24T09:38:53;100465.34;;;2.83;100.00
22743;BME280;11538;48.884;8.696;2023-01-24T09:44:49;100474.00;;;2.78;100.00
22743;BME280;11538;48.884;8.696;2023-01-24T09:47:41;100478.13;;;2.81;100.00
22743;BME280;11538;48.884;8.696;2023-01-24T09:53:04;100479.13;;;2.86;100.00
22743;BME280;11538;48.884;8.696;2023-01-24T09:55:34;100472.13;;;2.85;100.00
22743;BME280;11538;48.884;8.696;2023-01-24T09:58:34;100479.13;;;2.86;100.00
22743;BME280;11538;48.884;8.696;2023-01-24T10:01:12;100474.59;;;2.93;100.00
22743;BME280;11538;48.884;8.696;2023-01-24T10:03:41;100465.75;;;2.93;100.00
22743;BME280;11538;48.884;8.696;2023-01-24T10:06:13;100476.47;;;2.93;100.00
22743;BME280;11538;48.884;8.696;2023-01-24T10:11:49;100473.78;;;2.93;100.00
22743;BME280;11538;48.884;8.696;2023-01-24T10:26:11;100465.53;;;2.95;100.00
22743;BME280;11538;48.884;8.696;2023-01-24T10:28:41;100461.00;;;2.95;100.00
22743;BME280;11538;48.884;8.696;2023-01-24T10:31:18;100458.31;;;2.95;100.00
22743;BME280;11538;48.884;8.696;2023-01-24T10:33:55;100463.47;;;2.97;100.00
22743;BME280;11538;48.884;8.696;2023-01-24T10:36:51;100463.47;;;2.97;100.00
22743;BME280;11538;48.884;8.696;2023-01-24T10:39:20;100455.22;;;2.98;100.00
22743;BME280;11538;48.884;8.696;2023-01-24T10:41:47;100452.97;;;2.95;100.00
22743;BME280;11538;48.884;8.696;2023-01-24T10:44:22;100465.53;;;3.01;100.00
22743;BME280;11538;48.884;8.696;2023-01-24T10:47:12;100457.06;;;3.04;100.00
22743;BME280;11538;48.884;8.696;2023-01-24T10:49:41;100457.69;;;3.06;100.00
22743;BME280;11538;48.884;8.696;2023-01-24T10:52:18;100450.69;;;3.05;100.00
22743;BME280;11538;48.884;8.696;2023-01-24T10:54:54;100453.97;;;3.07;100.00
22743;BME280;11538;48.884;8.696;2023-01-24T11:00:32;100451.28;;;3.07;100.00
22743;BME280;11538;48.884;8.696;2023-01-24T11:03:16;100461.38;;;3.12;100.00
22743;BME280;11538;48.884;8.696;2023-01-24T11:05:48;100455.19;;;3.12;100.00
22743;BME280;11538;48.884;8.696;2023-01-24T11:08:31;100455.41;;;3.17;100.00
22743;BME280;11538;48.884;8.696;2023-01-24T11:10:59;100456.00;;;3.19;100.00
22743;BME280;11538;48.884;8.696;2023-01-24T11:13:40;100452.91;;;3.22;100.00
22743;BME280;11538;48.884;8.696;2023-01-24T11:18:51;100448.97;;;3.25;100.00
22743;BME280;11538;48.884;8.696;2023-01-24T11:21:19;100453.53;;;3.24;100.00
22743;BME280;11538;48.884;8.696;2023-01-24T11:24:11;100452.69;;;3.24;100.00
22743;BME280;11538;48.884;8.696;2023-01-24T11:29:29;100447.31;;;3.30;100.00
22743;BME280;11538;48.884;8.696;2023-01-24T11:32:26;100448.53;;;3.28;100.00
22743;BME280;11538;48.884;8.696;2023-01-24T11:34:57;100436.34;;;3.39;100.00
22743;BME280;11538;48.884;8.696;2023-01-24T11:37:38;100437.41;;;3.38;100.00
22743;BME280;11538;48.884;8.696;2023-01-24T11:40:41;100433.28;;;3.28;100.00
22743;BME280;11538;48.884;8.696;2023-01-24T11:48:55;100439.28;;;3.30;100.00
22743;BME280;11538;48.884;8.696;2023-01-24T11:51:36;100434.72;;;3.31;100.00
22743;BME280;11538;48.884;8.696;2023-01-24T11:54:28;100430.19;;;3.31;100.00
22743;BME280;11538;48.884;8.696;2023-01-24T11:57:34;100432.03;;;3.38;100.00
22743;BME280;11538;48.884;8.696;2023-01-24T12:00:40;100430.81;;;3.33;100.00
22743;BME280;11538;48.884;8.696;2023-01-24T12:17:29;100419.00;;;3.48;100.00
22743;BME280;11538;48.884;8.696;2023-01-24T12:23:23;100411.78;;;3.42;100.00
22743;BME280;11538;48.884;8.696;2023-01-24T12:25:52;100416.13;;;3.43;100.00
22743;BME280;11538;48.884;8.696;2023-01-24T12:28:34;100405.38;;;3.43;100.00
22743;BME280;11538;48.884;8.696;2023-01-24T12:31:06;100401.91;;;3.42;100.00
22743;BME280;11538;48.884;8.696;2023-01-24T12:33:40;100406.00;;;3.45;100.00
22743;BME280;11538;48.884;8.696;2023-01-24T12:36:33;100400.81;;;3.50;100.00
22743;BME280;11538;48.884;8.696;2023-01-24T12:39:11;100391.13;;;3.49;100.00
22743;BME280;11538;48.884;8.696;2023-01-24T12:41:40;100391.97;;;3.49;100.00
22743;BME280;11538;48.884;8.696;2023-01-24T12:44:23;100390.94;;;3.50;100.00
22743;BME280;11538;48.884;8.696;2023-01-24T12:50:24;100393.38;;;3.52;100.00
22743;BME280;11538;48.884;8.696;2023-01-24T12:53:01;100390.31;;;3.48;100.00
22743;BME280;11538;48.884;8.696;2023-01-24T12:55:40;100383.31;;;3.47;100.00
22743;BME280;11538;48.884;8.696;2023-01-24T12:58:18;100379.34;;;3.50;100.00
22743;BME280;11538;48.884;8.696;2023-01-24T13:01:01;100374.00;;;3.50;100.00
22743;BME280;11538;48.884;8.696;2023-01-24T13:09:20;100384.09;;;3.55;100.00
22743;BME280;11538;48.884;8.696;2023-01-24T13:11:51;100381.19;;;3.56;100.00
22743;BME280;11538;48.884;8.696;2023-01-24T13:14:34;100386.56;;;3.56;100.00
22743;BME280;11538;48.884;8.696;2023-01-24T13:17:10;100392.31;;;3.60;100.00
22743;BME280;11538;48.884;8.696;2023-01-24T13:26:00;100394.41;;;3.51;100.00
22743;BME280;11538;48.884;8.696;2023-01-24T13:28:45;100394.00;;;3.54;100.00
22743;BME280;11538;48.884;8.696;2023-01-24T13:33:50;100390.50;;;3.54;100.00
22743;BME280;11538;48.884;8.696;2023-01-24T13:36:22;100385.75;;;3.49;100.00
22743;BME280;11538;48.884;8.696;2023-01-24T13:38:49;100387.84;;;3.47;100.00
22743;BME280;11538;48.884;8.696;2023-01-24T13:43:58;100383.31;;;3.47;100.00
22743;BME280;11538;48.884;8.696;2023-01-24T13:51:48;100389.88;;;3.51;100.00
22743;BME280;11538;48.884;8.696;2023-01-24T13:54:18;100383.06;;;3.49;100.00
22743;BME280;11538;48.884;8.696;2023-01-24T13:59:37;100387.81;;;3.54;100.00
22743;BME280;11538;48.884;8.696;2023-01-24T14:02:41;100393.78;;;3.56;100.00
22743;BME280;11538;48.884;8.696;2023-01-24T14:07:56;100402.47;;;3.51;100.00
22743;BME280;11538;48.884;8.696;2023-01-24T14:10:35;100405.56;;;3.48;100.00
22743;BME280;11538;48.884;8.696;2023-01-24T14:13:03;100403.31;;;3.45;100.00
22743;BME280;11538;48.884;8.696;2023-01-24T14:15:38;100405.38;;;3.49;100.00
22743;BME280;11538;48.884;8.696;2023-01-24T14:18:46;100403.91;;;3.54;100.00
22743;BME280;11538;48.884;8.696;2023-01-24T14:21:20;100403.91;;;3.54;100.00
22743;BME280;11538;48.884;8.696;2023-01-24T14:23:56;100406.59;;;3.54;100.00
22743;BME280;11538;48.884;8.696;2023-01-24T14:26:27;100404.34;;;3.50;100.00
22743;BME280;11538;48.884;8.696;2023-01-24T14:29:02;100410.75;;;3.49;100.00
22743;BME280;11538;48.884;8.696;2023-01-24T14:31:33;100410.75;;;3.49;100.00
22743;BME280;11538;48.884;8.696;2023-01-24T14:34:23;100408.06;;;3.43;100.00
22743;BME280;11538;48.884;8.696;2023-01-24T14:37:01;100412.63;;;3.35;100.00
22743;BME280;11538;48.884;8.696;2023-01-24T14:39:29;100411.19;;;3.40;100.00
22743;BME280;11538;48.884;8.696;2023-01-24T14:41:59;100417.78;;;3.44;100.00
22743;BME280;11538;48.884;8.696;2023-01-24T14:44:37;100410.16;;;3.41;100.00
22743;BME280;11538;48.884;8.696;2023-01-24T14:47:17;100415.94;;;3.38;100.00
22743;BME280;11538;48.884;8.696;2023-01-24T14:49:47;100412.63;;;3.35;100.00